sensor_id;sensor_type;location;lat;lon;timestamp;temperature;humidity
11848;DHT22;5983;49.966;8.052;2023-06-14T00:00:47;16.40;90.70
11848;DHT22;5983;49.966;8.052;2023-06-14T00:03:14;16.40;90.90
11848;DHT22;5983;49.966;8.052;2023-06-14T00:05:44;16.40;91.30
11848;DHT22;5983;49.966;8.052;2023-06-14T00:08:12;16.40;91.70
11848;DHT22;5983;49.966;8.052;2023-06-14T00:10:40;16.40;91.90
11848;DHT22;5983;49.966;8.052;2023-06-14T00:13:08;16.30;92.20
11848;DHT22;5983;49.966;8.052;2023-06-14T00:15:35;16.30;92.50
11848;DHT22;5983;49.966;8.052;2023-06-14T00:18:03;16.30;92.60
11848;DHT22;5983;49.966;8.052;2023-06-14T00:20:32;16.30;92.70
11848;DHT22;5983;49.966;8.052;2023-06-14T00:23:01;16.30;92.70
11848;DHT22;5983;49.966;8.052;2023-06-14T00:25:28;16.30;92.60
11848;DHT22;5983;49.966;8.052;2023-06-14T00:27:56;16.30;92.60
11848;DHT22;5983;49.966;8.052;2023-06-14T00:30:24;16.20;92.40
11848;DHT22;5983;49.966;8.052;2023-06-14T00:32:56;16.20;92.60
11848;DHT22;5983;49.966;8.052;2023-06-14T00:35:23;16.10;92.60
11848;DHT22;5983;49.966;8.052;2023-06-14T00:37:50;16.10;92.80
11848;DHT22;5983;49.966;8.052;2023-06-14T00:40:19;16.20;93.20
11848;DHT22;5983;49.966;8.052;2023-06-14T00:42:46;16.20;93.50
11848;DHT22;5983;49.966;8.052;2023-06-14T00:45:13;16.10;93.50
11848;DHT22;5983;49.966;8.052;2023-06-14T00:47:41;16.10;93.30
11848;DHT22;5983;49.966;8.052;2023-06-14T00:50:10;16.00;93.40
11848;DHT22;5983;49.966;8.052;2023-06-14T00:52:39;16.00;93.60
11848;DHT22;5983;49.966;8.052;2023-06-14T00:55:07;16.00;93.70
11848;DHT22;5983;49.966;8.052;2023-06-14T00:57:36;16.00;94.00
11848;DHT22;5983;49.966;8.052;2023-06-14T01:00:06;16.00;94.20
11848;DHT22;5983;49.966;8.052;2023-06-14T01:02:35;15.90;94.00
11848;DHT22;5983;49.966;8.052;2023-06-14T01:05:03;16.00;94.00
11848;DHT22;5983;49.966;8.052;2023-06-14T01:07:38;15.90;93.90
11848;DHT22;5983;49.966;8.052;2023-06-14T01:10:31;15.80;94.00
11848;DHT22;5983;49.966;8.052;2023-06-14T01:13:08;15.80;94.10
11848;DHT22;5983;49.966;8.052;2023-06-14T01:15:39;15.80;94.00
11848;DHT22;5983;49.966;8.052;2023-06-14T01:18:09;15.80;94.00
11848;DHT22;5983;49.966;8.052;2023-06-14T01:20:43;15.70;94.00
11848;DHT22;5983;49.966;8.052;2023-06-14T01:23:16;15.60;94.00
11848;DHT22;5983;49.966;8.052;2023-06-14T01:25:43;15.60;94.30
11848;DHT22;5983;49.966;8.052;2023-06-14T01:28:11;15.60;94.40
11848;DHT22;5983;49.966;8.052;2023-06-14T01:30:41;15.60;94.40
11848;DHT22;5983;49.966;8.052;2023-06-14T01:33:12;15.60;94.70
11848;DHT22;5983;49.966;8.052;2023-06-14T01:35:41;15.50;94.80
11848;DHT22;5983;49.966;8.052;2023-06-14T01:38:09;15.40;95.00
11848;DHT22;5983;49.966;8.052;2023-06-14T01:40:39;15.40;95.30
11848;DHT22;5983;49.966;8.052;2023-06-14T01:43:07;15.30;95.60
11848;DHT22;5983;49.966;8.052;2023-06-14T01:45:34;15.20;95.80
11848;DHT22;5983;49.966;8.052;2023-06-14T01:48:04;15.10;96.00
11848;DHT22;5983;49.966;8.052;2023-06-14T01:50:31;15.10;96.40
11848;DHT22;5983;49.966;8.052;2023-06-14T01:52:59;15.00;96.50
11848;DHT22;5983;49.966;8.052;2023-06-14T01:55:26;15.10;96.50
11848;DHT22;5983;49.966;8.052;2023-06-14T01:57:54;15.00;96.50
11848;DHT22;5983;49.966;8.052;2023-06-14T02:00:21;15.00;96.70
11848;DHT22;5983;49.966;8.052;2023-06-14T02:02:48;15.00;97.10
11848;DHT22;5983;49.966;8.052;2023-06-14T02:05:15;15.00;97.50
11848;DHT22;5983;49.966;8.052;2023-06-14T02:07:44;15.00;98.10
11848;DHT22;5983;49.966;8.052;2023-06-14T02:10:12;15.00;98.30
11848;DHT22;5983;49.966;8.052;2023-06-14T02:12:40;15.00;98.40
11848;DHT22;5983;49.966;8.052;2023-06-14T02:15:10;15.00;98.50
11848;DHT22;5983;49.966;8.052;2023-06-14T02:17:42;15.00;98.50
11848;DHT22;5983;49.966;8.052;2023-06-14T02:20:09;15.10;98.90
11848;DHT22;5983;49.966;8.052;2023-06-14T02:22:37;15.10;99.10
11848;DHT22;5983;49.966;8.052;2023-06-14T02:25:05;15.10;99.10
11848;DHT22;5983;49.966;8.052;2023-06-14T02:27:32;15.10;99.70
11848;DHT22;5983;49.966;8.052;2023-06-14T02:30:00;15.10;99.90
11848;DHT22;5983;49.966;8.052;2023-06-14T02:32:28;15.00;99.90
11848;DHT22;5983;49.966;8.052;2023-06-14T02:34:55;14.90;99.90
11848;DHT22;5983;49.966;8.052;2023-06-14T02:37:22;14.90;99.90
11848;DHT22;5983;49.966;8.052;2023-06-14T02:39:49;14.70;99.90
11848;DHT22;5983;49.966;8.052;2023-06-14T02:42:16;14.70;99.90
11848;DHT22;5983;49.966;8.052;2023-06-14T02:44:43;14.70;99.90
11848;DHT22;5983;49.966;8.052;2023-06-14T02:47:12;14.50;99.90
11848;DHT22;5983;49.966;8.052;2023-06-14T02:49:40;14.50;99.90
11848;DHT22;5983;49.966;8.052;2023-06-14T02:52:07;14.50;99.90
11848;DHT22;5983;49.966;8.052;2023-06-14T02:54:35;14.50;99.90
11848;DHT22;5983;49.966;8.052;2023-06-14T02:57:03;14.50;99.90
11848;DHT22;5983;49.966;8.052;2023-06-14T02:59:32;14.50;99.90
11848;DHT22;5983;49.966;8.052;2023-06-14T03:01:59;14.60;99.90
11848;DHT22;5983;49.966;8.052;2023-06-14T03:04:26;14.60;99.90
11848;DHT22;5983;49.966;8.052;2023-06-14T03:06:55;14.60;99.90
11848;DHT22;5983;49.966;8.052;2023-06-14T03:09:23;14.60;99.90
11848;DHT22;5983;49.966;8.052;2023-06-14T03:11:50;14.50;99.90
11848;DHT22;5983;49.966;8.052;2023-06-14T03:14:17;14.50;99.90
11848;DHT22;5983;49.966;8.052;2023-06-14T03:16:44;14.50;99.90
11848;DHT22;5983;49.966;8.052;2023-06-14T03:19:11;14.40;99.90
11848;DHT22;5983;49.966;8.052;2023-06-14T03:21:38;14.30;99.90
11848;DHT22;5983;49.966;8.052;2023-06-14T03:24:10;14.20;99.90
11848;DHT22;5983;49.966;8.052;2023-06-14T03:26:37;14.10;99.90
11848;DHT22;5983;49.966;8.052;2023-06-14T03:29:04;14.10;99.90
11848;DHT22;5983;49.966;8.052;2023-06-14T03:31:31;14.20;99.90
11848;DHT22;5983;49.966;8.052;2023-06-14T03:33:59;14.20;99.90
11848;DHT22;5983;49.966;8.052;2023-06-14T03:36:26;14.30;99.90
11848;DHT22;5983;49.966;8.052;2023-06-14T03:38:53;14.30;99.90
11848;DHT22;5983;49.966;8.052;2023-06-14T03:41:22;14.30;99.90
11848;DHT22;5983;49.966;8.052;2023-06-14T03:43:49;14.30;99.90
11848;DHT22;5983;49.966;8.052;2023-06-14T03:46:16;14.30;99.90
11848;DHT22;5983;49.966;8.052;2023-06-14T03:48:43;14.30;99.90
11848;DHT22;5983;49.966;8.052;2023-06-14T03:51:10;14.40;99.90
11848;DHT22;5983;49.966;8.052;2023-06-14T03:53:37;14.50;99.90
11848;DHT22;5983;49.966;8.052;2023-06-14T03:56:04;14.50;99.90
11848;DHT22;5983;49.966;8.052;2023-06-14T03:58:34;14.50;99.90
11848;DHT22;5983;49.966;8.052;2023-06-14T04:01:01;14.50;99.90
11848;DHT22;5983;49.966;8.052;2023-06-14T04:03:27;14.50;99.90
11848;DHT22;5983;49.966;8.052;2023-06-14T04:05:55;14.60;99.90
11848;DHT22;5983;49.966;8.052;2023-06-14T04:08:25;14.60;99.90
11848;DHT22;5983;49.966;8.052;2023-06-14T04:10:52;14.60;99.90
11848;DHT22;5983;49.966;8.052;2023-06-14T04:13:19;14.60;99.90
11848;DHT22;5983;49.966;8.052;2023-06-14T04:15:47;14.60;99.90
11848;DHT22;5983;49.966;8.052;2023-06-14T04:18:14;14.60;99.90
11848;DHT22;5983;49.966;8.052;2023-06-14T04:20:41;14.60;99.90
11848;DHT22;5983;49.966;8.052;2023-06-14T04:23:12;14.70;99.90
11848;DHT22;5983;49.966;8.052;2023-06-14T04:25:40;14.80;99.90
11848;DHT22;5983;49.966;8.052;2023-06-14T04:28:10;14.80;99.90
11848;DHT22;5983;49.966;8.052;2023-06-14T04:30:37;14.80;99.90
11848;DHT22;5983;49.966;8.052;2023-06-14T04:33:07;14.90;99.90
11848;DHT22;5983;49.966;8.052;2023-06-14T04:35:35;15.00;99.90
11848;DHT22;5983;49.966;8.052;2023-06-14T04:38:03;15.10;99.90
11848;DHT22;5983;49.966;8.052;2023-06-14T04:40:34;15.20;99.90
11848;DHT22;5983;49.966;8.052;2023-06-14T04:43:08;15.30;99.90
11848;DHT22;5983;49.966;8.052;2023-06-14T04:45:38;15.30;99.90
11848;DHT22;5983;49.966;8.052;2023-06-14T04:48:07;15.40;99.90
11848;DHT22;5983;49.966;8.052;2023-06-14T04:50:34;15.40;99.90
11848;DHT22;5983;49.966;8.052;2023-06-14T04:53:01;15.40;99.90
11848;DHT22;5983;49.966;8.052;2023-06-14T04:55:28;15.50;99.90
11848;DHT22;5983;49.966;8.052;2023-06-14T04:57:56;15.50;99.90
11848;DHT22;5983;49.966;8.052;2023-06-14T05:00:23;15.70;99.90
11848;DHT22;5983;49.966;8.052;2023-06-14T05:02:50;15.80;99.90
11848;DHT22;5983;49.966;8.052;2023-06-14T05:05:19;15.90;99.90
11848;DHT22;5983;49.966;8.052;2023-06-14T05:07:46;16.00;99.90
11848;DHT22;5983;49.966;8.052;2023-06-14T05:10:13;16.20;99.90
11848;DHT22;5983;49.966;8.052;2023-06-14T05:12:40;16.30;99.90
11848;DHT22;5983;49.966;8.052;2023-06-14T05:15:09;16.50;99.90
11848;DHT22;5983;49.966;8.052;2023-06-14T05:17:36;16.60;99.90
11848;DHT22;5983;49.966;8.052;2023-06-14T05:20:07;16.70;99.90
11848;DHT22;5983;49.966;8.052;2023-06-14T05:22:37;16.80;99.90
11848;DHT22;5983;49.966;8.052;2023-06-14T05:25:05;17.00;99.90
11848;DHT22;5983;49.966;8.052;2023-06-14T05:27:32;17.10;99.90
11848;DHT22;5983;49.966;8.052;2023-06-14T05:30:01;17.20;99.90
11848;DHT22;5983;49.966;8.052;2023-06-14T05:32:29;17.40;99.90
11848;DHT22;5983;49.966;8.052;2023-06-14T05:34:56;17.50;99.90
11848;DHT22;5983;49.966;8.052;2023-06-14T05:37:23;17.60;99.90
11848;DHT22;5983;49.966;8.052;2023-06-14T05:39:52;17.70;99.90
11848;DHT22;5983;49.966;8.052;2023-06-14T05:42:19;17.90;99.90
11848;DHT22;5983;49.966;8.052;2023-06-14T05:44:45;18.10;99.90
11848;DHT22;5983;49.966;8.052;2023-06-14T05:47:12;18.30;99.90
11848;DHT22;5983;49.966;8.052;2023-06-14T05:49:39;18.50;99.90
11848;DHT22;5983;49.966;8.052;2023-06-14T05:52:08;18.60;99.90
11848;DHT22;5983;49.966;8.052;2023-06-14T05:54:35;18.70;99.90
11848;DHT22;5983;49.966;8.052;2023-06-14T05:57:04;18.90;99.90
11848;DHT22;5983;49.966;8.052;2023-06-14T05:59:32;19.00;99.90
11848;DHT22;5983;49.966;8.052;2023-06-14T06:01:59;19.20;99.90
11848;DHT22;5983;49.966;8.052;2023-06-14T06:04:25;19.30;99.90
11848;DHT22;5983;49.966;8.052;2023-06-14T06:06:52;19.50;97.80
11848;DHT22;5983;49.966;8.052;2023-06-14T06:09:20;19.60;96.80
11848;DHT22;5983;49.966;8.052;2023-06-14T06:11:46;19.80;96.90
11848;DHT22;5983;49.966;8.052;2023-06-14T06:14:15;20.00;95.60
11848;DHT22;5983;49.966;8.052;2023-06-14T06:16:42;20.10;94.10
11848;DHT22;5983;49.966;8.052;2023-06-14T06:19:09;20.20;93.10
11848;DHT22;5983;49.966;8.052;2023-06-14T06:21:36;20.30;93.30
11848;DHT22;5983;49.966;8.052;2023-06-14T06:24:04;20.40;93.10
11848;DHT22;5983;49.966;8.052;2023-06-14T06:26:31;20.50;92.70
11848;DHT22;5983;49.966;8.052;2023-06-14T06:28:58;20.60;92.10
11848;DHT22;5983;49.966;8.052;2023-06-14T06:31:27;20.60;91.40
11848;DHT22;5983;49.966;8.052;2023-06-14T06:33:53;20.70;91.10
11848;DHT22;5983;49.966;8.052;2023-06-14T06:36:21;20.80;91.50
11848;DHT22;5983;49.966;8.052;2023-06-14T06:38:47;20.90;90.70
11848;DHT22;5983;49.966;8.052;2023-06-14T06:41:14;20.90;90.70
11848;DHT22;5983;49.966;8.052;2023-06-14T06:43:41;21.10;90.90
11848;DHT22;5983;49.966;8.052;2023-06-14T06:46:08;21.20;89.70
11848;DHT22;5983;49.966;8.052;2023-06-14T06:48:36;21.20;89.50
11848;DHT22;5983;49.966;8.052;2023-06-14T06:51:03;21.30;89.00
11848;DHT22;5983;49.966;8.052;2023-06-14T06:53:31;21.40;87.70
11848;DHT22;5983;49.966;8.052;2023-06-14T06:55:57;21.50;88.10
11848;DHT22;5983;49.966;8.052;2023-06-14T06:58:24;21.60;85.90
11848;DHT22;5983;49.966;8.052;2023-06-14T07:00:51;21.60;85.60
11848;DHT22;5983;49.966;8.052;2023-06-14T07:03:18;21.50;86.10
11848;DHT22;5983;49.966;8.052;2023-06-14T07:05:46;21.50;85.10
11848;DHT22;5983;49.966;8.052;2023-06-14T07:08:13;21.60;85.10
11848;DHT22;5983;49.966;8.052;2023-06-14T07:10:40;21.60;85.10
11848;DHT22;5983;49.966;8.052;2023-06-14T07:13:07;21.60;84.50
11848;DHT22;5983;49.966;8.052;2023-06-14T07:15:34;21.70;83.20
11848;DHT22;5983;49.966;8.052;2023-06-14T07:18:01;21.70;83.50
11848;DHT22;5983;49.966;8.052;2023-06-14T07:20:28;21.70;84.90
11848;DHT22;5983;49.966;8.052;2023-06-14T07:22:58;21.80;84.30
11848;DHT22;5983;49.966;8.052;2023-06-14T07:25:25;21.90;84.90
11848;DHT22;5983;49.966;8.052;2023-06-14T07:27:52;22.00;84.20
11848;DHT22;5983;49.966;8.052;2023-06-14T07:30:18;22.10;84.70
11848;DHT22;5983;49.966;8.052;2023-06-14T07:32:45;22.10;83.90
11848;DHT22;5983;49.966;8.052;2023-06-14T07:35:12;22.10;83.70
11848;DHT22;5983;49.966;8.052;2023-06-14T07:37:39;22.20;83.60
11848;DHT22;5983;49.966;8.052;2023-06-14T07:40:09;22.20;82.40
11848;DHT22;5983;49.966;8.052;2023-06-14T07:42:36;22.20;82.00
11848;DHT22;5983;49.966;8.052;2023-06-14T07:45:04;22.20;82.80
11848;DHT22;5983;49.966;8.052;2023-06-14T07:47:32;22.20;82.40
11848;DHT22;5983;49.966;8.052;2023-06-14T07:49:59;22.30;82.30
11848;DHT22;5983;49.966;8.052;2023-06-14T07:52:26;22.40;82.50
11848;DHT22;5983;49.966;8.052;2023-06-14T07:54:53;22.30;79.20
11848;DHT22;5983;49.966;8.052;2023-06-14T07:57:22;22.40;78.60
11848;DHT22;5983;49.966;8.052;2023-06-14T07:59:49;22.40;78.40
11848;DHT22;5983;49.966;8.052;2023-06-14T08:02:16;22.40;78.00
11848;DHT22;5983;49.966;8.052;2023-06-14T08:04:43;22.50;79.50
11848;DHT22;5983;49.966;8.052;2023-06-14T08:07:10;22.50;79.00
11848;DHT22;5983;49.966;8.052;2023-06-14T08:09:37;22.60;77.70
11848;DHT22;5983;49.966;8.052;2023-06-14T08:12:05;22.50;77.10
11848;DHT22;5983;49.966;8.052;2023-06-14T08:14:36;22.50;77.70
11848;DHT22;5983;49.966;8.052;2023-06-14T08:17:03;22.50;77.20
11848;DHT22;5983;49.966;8.052;2023-06-14T08:19:30;22.60;77.50
11848;DHT22;5983;49.966;8.052;2023-06-14T08:21:57;22.70;76.00
11848;DHT22;5983;49.966;8.052;2023-06-14T08:24:25;22.70;75.60
11848;DHT22;5983;49.966;8.052;2023-06-14T08:26:53;22.80;75.40
11848;DHT22;5983;49.966;8.052;2023-06-14T08:29:20;22.80;75.40
11848;DHT22;5983;49.966;8.052;2023-06-14T08:31:48;22.90;75.90
11848;DHT22;5983;49.966;8.052;2023-06-14T08:34:15;23.10;75.40
11848;DHT22;5983;49.966;8.052;2023-06-14T08:36:42;23.20;74.90
11848;DHT22;5983;49.966;8.052;2023-06-14T08:39:09;23.20;74.40
11848;DHT22;5983;49.966;8.052;2023-06-14T08:41:36;23.30;73.80
11848;DHT22;5983;49.966;8.052;2023-06-14T08:44:03;23.40;72.60
11848;DHT22;5983;49.966;8.052;2023-06-14T08:46:32;23.50;72.40
11848;DHT22;5983;49.966;8.052;2023-06-14T08:49:02;23.50;73.10
11848;DHT22;5983;49.966;8.052;2023-06-14T08:51:31;23.60;72.50
11848;DHT22;5983;49.966;8.052;2023-06-14T08:54:00;23.60;71.60
11848;DHT22;5983;49.966;8.052;2023-06-14T08:56:29;23.70;72.70
11848;DHT22;5983;49.966;8.052;2023-06-14T08:58:58;23.70;73.10
11848;DHT22;5983;49.966;8.052;2023-06-14T09:01:28;23.70;73.00
11848;DHT22;5983;49.966;8.052;2023-06-14T09:03:56;23.90;72.80
11848;DHT22;5983;49.966;8.052;2023-06-14T09:06:26;24.00;72.50
11848;DHT22;5983;49.966;8.052;2023-06-14T09:08:54;24.20;71.80
11848;DHT22;5983;49.966;8.052;2023-06-14T09:11:22;24.30;71.90
11848;DHT22;5983;49.966;8.052;2023-06-14T09:13:51;24.40;70.40
11848;DHT22;5983;49.966;8.052;2023-06-14T09:16:18;24.50;69.90
11848;DHT22;5983;49.966;8.052;2023-06-14T09:18:47;24.50;68.80
11848;DHT22;5983;49.966;8.052;2023-06-14T09:21:14;24.40;69.40
11848;DHT22;5983;49.966;8.052;2023-06-14T09:23:45;24.50;71.80
11848;DHT22;5983;49.966;8.052;2023-06-14T09:26:15;24.60;70.80
11848;DHT22;5983;49.966;8.052;2023-06-14T09:28:43;24.70;70.40
11848;DHT22;5983;49.966;8.052;2023-06-14T09:31:12;24.70;69.20
11848;DHT22;5983;49.966;8.052;2023-06-14T09:33:42;24.70;70.00
11848;DHT22;5983;49.966;8.052;2023-06-14T09:36:15;24.90;70.20
11848;DHT22;5983;49.966;8.052;2023-06-14T09:38:53;25.00;69.00
11848;DHT22;5983;49.966;8.052;2023-06-14T09:41:20;25.20;69.90
11848;DHT22;5983;49.966;8.052;2023-06-14T09:43:48;25.30;70.60
11848;DHT22;5983;49.966;8.052;2023-06-14T09:46:16;25.50;69.40
11848;DHT22;5983;49.966;8.052;2023-06-14T09:48:43;25.50;65.40
11848;DHT22;5983;49.966;8.052;2023-06-14T09:51:13;25.50;64.90
11848;DHT22;5983;49.966;8.052;2023-06-14T09:53:44;25.40;64.30
11848;DHT22;5983;49.966;8.052;2023-06-14T09:56:15;25.20;64.80
11848;DHT22;5983;49.966;8.052;2023-06-14T09:58:50;25.10;64.50
11848;DHT22;5983;49.966;8.052;2023-06-14T10:01:21;25.20;64.40
11848;DHT22;5983;49.966;8.052;2023-06-14T10:03:50;25.30;64.00
11848;DHT22;5983;49.966;8.052;2023-06-14T10:06:22;25.40;63.90
11848;DHT22;5983;49.966;8.052;2023-06-14T10:08:52;25.50;62.30
11848;DHT22;5983;49.966;8.052;2023-06-14T10:11:25;25.50;62.50
11848;DHT22;5983;49.966;8.052;2023-06-14T10:13:53;25.60;63.70
11848;DHT22;5983;49.966;8.052;2023-06-14T10:16:27;25.80;64.90
11848;DHT22;5983;49.966;8.052;2023-06-14T10:19:04;25.90;64.60
11848;DHT22;5983;49.966;8.052;2023-06-14T10:21:41;25.80;63.80
11848;DHT22;5983;49.966;8.052;2023-06-14T10:24:16;25.80;63.00
11848;DHT22;5983;49.966;8.052;2023-06-14T10:26:53;25.90;62.40
11848;DHT22;5983;49.966;8.052;2023-06-14T10:29:21;26.10;61.90
11848;DHT22;5983;49.966;8.052;2023-06-14T10:31:49;26.10;61.10
11848;DHT22;5983;49.966;8.052;2023-06-14T10:34:23;26.10;60.80
11848;DHT22;5983;49.966;8.052;2023-06-14T10:37:02;26.10;60.50
11848;DHT22;5983;49.966;8.052;2023-06-14T10:39:31;26.20;61.30
11848;DHT22;5983;49.966;8.052;2023-06-14T10:42:02;26.50;61.10
11848;DHT22;5983;49.966;8.052;2023-06-14T10:44:32;26.70;60.20
11848;DHT22;5983;49.966;8.052;2023-06-14T10:47:10;26.70;60.10
11848;DHT22;5983;49.966;8.052;2023-06-14T10:49:50;26.70;59.00
11848;DHT22;5983;49.966;8.052;2023-06-14T10:52:22;26.70;59.70
11848;DHT22;5983;49.966;8.052;2023-06-14T10:55:06;26.80;59.00
11848;DHT22;5983;49.966;8.052;2023-06-14T10:57:41;26.70;58.50
11848;DHT22;5983;49.966;8.052;2023-06-14T11:00:10;26.30;58.30
11848;DHT22;5983;49.966;8.052;2023-06-14T11:06:15;26.20;57.60
11848;DHT22;5983;49.966;8.052;2023-06-14T11:12:01;26.20;56.80
11848;DHT22;5983;49.966;8.052;2023-06-14T11:14:31;26.20;55.70
11848;DHT22;5983;49.966;8.052;2023-06-14T11:16:58;26.20;55.00
11848;DHT22;5983;49.966;8.052;2023-06-14T11:19:26;26.20;57.20
11848;DHT22;5983;49.966;8.052;2023-06-14T11:21:54;26.40;57.50
11848;DHT22;5983;49.966;8.052;2023-06-14T11:24:21;26.50;57.00
11848;DHT22;5983;49.966;8.052;2023-06-14T11:26:48;26.60;55.70
11848;DHT22;5983;49.966;8.052;2023-06-14T11:29:16;26.70;56.50
11848;DHT22;5983;49.966;8.052;2023-06-14T11:31:45;26.80;56.80
11848;DHT22;5983;49.966;8.052;2023-06-14T11:34:12;26.70;57.00
11848;DHT22;5983;49.966;8.052;2023-06-14T11:36:40;26.70;57.60
11848;DHT22;5983;49.966;8.052;2023-06-14T11:39:07;26.70;57.40
11848;DHT22;5983;49.966;8.052;2023-06-14T11:41:39;26.80;58.40
11848;DHT22;5983;49.966;8.052;2023-06-14T11:44:07;26.90;58.80
11848;DHT22;5983;49.966;8.052;2023-06-14T11:46:35;26.90;59.10
11848;DHT22;5983;49.966;8.052;2023-06-14T11:49:04;26.90;58.10
11848;DHT22;5983;49.966;8.052;2023-06-14T11:51:33;27.00;57.30
11848;DHT22;5983;49.966;8.052;2023-06-14T11:54:01;27.10;57.70
11848;DHT22;5983;49.966;8.052;2023-06-14T11:56:29;27.20;57.80
11848;DHT22;5983;49.966;8.052;2023-06-14T11:58:57;27.30;58.20
11848;DHT22;5983;49.966;8.052;2023-06-14T12:01:24;27.30;57.80
11848;DHT22;5983;49.966;8.052;2023-06-14T12:03:54;27.40;57.60
11848;DHT22;5983;49.966;8.052;2023-06-14T12:06:29;27.50;56.20
11848;DHT22;5983;49.966;8.052;2023-06-14T12:09:04;27.30;55.20
11848;DHT22;5983;49.966;8.052;2023-06-14T12:11:33;27.20;56.00
11848;DHT22;5983;49.966;8.052;2023-06-14T12:14:03;27.10;55.90
11848;DHT22;5983;49.966;8.052;2023-06-14T12:16:31;27.00;56.10
11848;DHT22;5983;49.966;8.052;2023-06-14T12:19:01;26.90;55.40
11848;DHT22;5983;49.966;8.052;2023-06-14T12:21:37;26.70;56.20
11848;DHT22;5983;49.966;8.052;2023-06-14T12:24:06;26.50;56.20
11848;DHT22;5983;49.966;8.052;2023-06-14T12:26:33;26.40;55.90
11848;DHT22;5983;49.966;8.052;2023-06-14T12:29:05;26.40;56.60
11848;DHT22;5983;49.966;8.052;2023-06-14T12:31:32;26.50;56.60
11848;DHT22;5983;49.966;8.052;2023-06-14T12:33:59;26.60;56.40
11848;DHT22;5983;49.966;8.052;2023-06-14T12:36:26;26.70;54.30
11848;DHT22;5983;49.966;8.052;2023-06-14T12:38:55;26.80;54.70
11848;DHT22;5983;49.966;8.052;2023-06-14T12:41:22;27.00;55.00
11848;DHT22;5983;49.966;8.052;2023-06-14T12:43:49;27.00;54.40
11848;DHT22;5983;49.966;8.052;2023-06-14T12:46:17;27.00;53.30
11848;DHT22;5983;49.966;8.052;2023-06-14T12:48:44;27.10;54.30
11848;DHT22;5983;49.966;8.052;2023-06-14T12:51:11;27.20;53.70
11848;DHT22;5983;49.966;8.052;2023-06-14T12:53:37;27.30;53.40
11848;DHT22;5983;49.966;8.052;2023-06-14T12:56:06;27.50;53.00
11848;DHT22;5983;49.966;8.052;2023-06-14T12:58:33;27.60;53.10
11848;DHT22;5983;49.966;8.052;2023-06-14T13:01:00;27.70;50.50
11848;DHT22;5983;49.966;8.052;2023-06-14T13:03:27;27.60;50.70
11848;DHT22;5983;49.966;8.052;2023-06-14T13:05:54;27.70;51.50
11848;DHT22;5983;49.966;8.052;2023-06-14T13:08:21;27.70;52.40
11848;DHT22;5983;49.966;8.052;2023-06-14T13:10:49;27.80;52.30
11848;DHT22;5983;49.966;8.052;2023-06-14T13:13:17;27.90;51.90
11848;DHT22;5983;49.966;8.052;2023-06-14T13:15:44;27.80;51.30
11848;DHT22;5983;49.966;8.052;2023-06-14T13:18:11;27.80;52.10
11848;DHT22;5983;49.966;8.052;2023-06-14T13:20:39;27.70;52.00
11848;DHT22;5983;49.966;8.052;2023-06-14T13:23:06;27.60;53.50
11848;DHT22;5983;49.966;8.052;2023-06-14T13:25:33;27.50;52.80
11848;DHT22;5983;49.966;8.052;2023-06-14T13:28:00;27.40;53.40
11848;DHT22;5983;49.966;8.052;2023-06-14T13:30:29;27.40;53.50
11848;DHT22;5983;49.966;8.052;2023-06-14T13:32:56;27.60;54.10
11848;DHT22;5983;49.966;8.052;2023-06-14T13:35:24;27.70;54.30
11848;DHT22;5983;49.966;8.052;2023-06-14T13:37:51;27.90;53.70
11848;DHT22;5983;49.966;8.052;2023-06-14T13:40:19;28.20;54.50
11848;DHT22;5983;49.966;8.052;2023-06-14T13:42:46;28.30;53.90
11848;DHT22;5983;49.966;8.052;2023-06-14T13:45:14;28.40;53.30
11848;DHT22;5983;49.966;8.052;2023-06-14T13:47:43;28.10;53.90
11848;DHT22;5983;49.966;8.052;2023-06-14T13:50:14;27.80;54.30
11848;DHT22;5983;49.966;8.052;2023-06-14T13:52:41;27.50;54.30
11848;DHT22;5983;49.966;8.052;2023-06-14T13:55:09;27.30;53.30
11848;DHT22;5983;49.966;8.052;2023-06-14T13:57:36;27.10;54.40
11848;DHT22;5983;49.966;8.052;2023-06-14T14:00:03;27.20;54.60
11848;DHT22;5983;49.966;8.052;2023-06-14T14:02:31;27.00;54.10
11848;DHT22;5983;49.966;8.052;2023-06-14T14:04:59;26.90;54.60
11848;DHT22;5983;49.966;8.052;2023-06-14T14:07:26;26.80;53.70
11848;DHT22;5983;49.966;8.052;2023-06-14T14:09:55;26.70;54.30
11848;DHT22;5983;49.966;8.052;2023-06-14T14:12:23;26.80;54.40
11848;DHT22;5983;49.966;8.052;2023-06-14T14:14:50;26.90;55.50
11848;DHT22;5983;49.966;8.052;2023-06-14T14:17:17;27.00;54.00
11848;DHT22;5983;49.966;8.052;2023-06-14T14:19:44;27.20;53.30
11848;DHT22;5983;49.966;8.052;2023-06-14T14:22:13;27.20;52.30
11848;DHT22;5983;49.966;8.052;2023-06-14T14:24:40;27.30;53.30
11848;DHT22;5983;49.966;8.052;2023-06-14T14:27:07;27.50;53.70
11848;DHT22;5983;49.966;8.052;2023-06-14T14:29:34;27.50;53.20
11848;DHT22;5983;49.966;8.052;2023-06-14T14:32:01;27.50;52.00
11848;DHT22;5983;49.966;8.052;2023-06-14T14:34:28;27.20;51.90
11848;DHT22;5983;49.966;8.052;2023-06-14T14:36:55;26.90;52.40
11848;DHT22;5983;49.966;8.052;2023-06-14T14:39:23;26.70;52.80
11848;DHT22;5983;49.966;8.052;2023-06-14T14:41:50;26.50;53.10
11848;DHT22;5983;49.966;8.052;2023-06-14T14:44:17;26.30;53.30
11848;DHT22;5983;49.966;8.052;2023-06-14T14:46:44;26.20;53.10
11848;DHT22;5983;49.966;8.052;2023-06-14T14:49:11;26.10;53.40
11848;DHT22;5983;49.966;8.052;2023-06-14T14:51:38;26.10;53.50
11848;DHT22;5983;49.966;8.052;2023-06-14T14:54:06;26.20;54.40
11848;DHT22;5983;49.966;8.052;2023-06-14T14:56:34;26.30;52.80
11848;DHT22;5983;49.966;8.052;2023-06-14T14:59:03;26.50;52.30
11848;DHT22;5983;49.966;8.052;2023-06-14T15:01:30;26.30;52.70
11848;DHT22;5983;49.966;8.052;2023-06-14T15:03:57;26.20;52.70
11848;DHT22;5983;49.966;8.052;2023-06-14T15:06:24;26.20;54.00
11848;DHT22;5983;49.966;8.052;2023-06-14T15:08:52;26.10;54.40
11848;DHT22;5983;49.966;8.052;2023-06-14T15:11:18;26.00;54.70
11848;DHT22;5983;49.966;8.052;2023-06-14T15:13:47;25.90;54.70
11848;DHT22;5983;49.966;8.052;2023-06-14T15:16:15;25.90;54.70
11848;DHT22;5983;49.966;8.052;2023-06-14T15:18:42;25.70;54.30
11848;DHT22;5983;49.966;8.052;2023-06-14T15:21:09;25.70;53.90
11848;DHT22;5983;49.966;8.052;2023-06-14T15:23:36;25.60;54.70
11848;DHT22;5983;49.966;8.052;2023-06-14T15:26:03;25.70;54.40
11848;DHT22;5983;49.966;8.052;2023-06-14T15:28:31;25.80;54.90
11848;DHT22;5983;49.966;8.052;2023-06-14T15:30:59;25.80;54.80
11848;DHT22;5983;49.966;8.052;2023-06-14T15:33:26;25.80;53.40
11848;DHT22;5983;49.966;8.052;2023-06-14T15:35:53;25.80;54.40
11848;DHT22;5983;49.966;8.052;2023-06-14T15:38:46;25.60;54.50
11848;DHT22;5983;49.966;8.052;2023-06-14T15:41:13;25.60;54.60
11848;DHT22;5983;49.966;8.052;2023-06-14T15:43:40;25.60;53.50
11848;DHT22;5983;49.966;8.052;2023-06-14T15:46:08;25.60;53.00
11848;DHT22;5983;49.966;8.052;2023-06-14T15:48:35;25.50;53.40
11848;DHT22;5983;49.966;8.052;2023-06-14T15:51:02;25.50;53.70
11848;DHT22;5983;49.966;8.052;2023-06-14T15:53:29;25.40;53.70
11848;DHT22;5983;49.966;8.052;2023-06-14T15:55:56;25.40;53.70
11848;DHT22;5983;49.966;8.052;2023-06-14T15:58:23;25.40;54.50